Terminal Aerodrome Forecast
Issued by NWS Cleveland, OH

Home | Current Version | Previous Version | Graphics & Text | Print | Product List | Glossary On
Versions: 1 2 3 4 5 6 7 8 9 10 11 12
000
FTUS41 KCLE 201120
TAFERI
TAF
KERI 201120Z 2012/2112 20005KT P6SM SCT200
     FM201500 22008KT P6SM SCT045 BKN200
     FM201900 24009KT P6SM VCTS SCT045CB BKN120
     FM210000 24008KT P6SM -SHRA VCTS BKN050CB
     FM210400 24007KT P6SM BKN120
     FM210600 27006KT 6SM BR SCT070
     FM210900 30006KT 5SM BR SCT100=

USA.gov is the U.S. government's official web portal to all federal, state and local government web resources and services.